Luchthavens in de buurt

   
Beek
Gewijzigd: 21-02-2020 01:25
Helder  
Helder  
   Wind: WZW 16.7 km/h
Wind: WZW 16.7 km/h
Temperatuur: 3°C
Voelt als: -1°C
Dauwpunt: 2°C
Vochtigheid: 93%
Barometer: 1020 hPa
Bewolking: Helder
Zicht: meer dan 10 km
Bewolking: Helder
EHBK 210025Z AUTO 24009KT 200V280 9999 NCD 03/02 Q1020
Eindhoven
Gewijzigd: 21-02-2020 01:25
Grotendeels bewolkt  
Grotendeels bewolkt  
   Wind: WZW 16.7 km/h
Wind: WZW 16.7 km/h
Temperatuur: 4°C
Voelt als: 0°C
Dauwpunt: 1°C
Vochtigheid: 81%
Barometer: 1019 hPa
Bewolking: Grotendeels bewolkt
Zicht: meer dan 10 km
Bewolking: Gedeeltelijk bewolkt 1158.2 m,
Grotendeels bewolkt 1280.2 m,
Grotendeels bewolkt 1463 m
EHEH 210025Z AUTO 24009KT 9999 SCT038 BKN042 BKN048 04/01 Q1019 BLU
Rotterdam
Gewijzigd: 21-02-2020 01:25
Licht bewolkt  
Licht bewolkt  
   Wind: Westen 25.9 km/h
Wind: Westen 25.9 km/h
Temperatuur: 6°C
Voelt als: 2°C
Dauwpunt: 1°C
Vochtigheid: 71%
Barometer: 1018 hPa
Bewolking: Licht bewolkt
Zicht: meer dan 10 km
Bewolking: Licht bewolkt 944.9 m
EHRD 210025Z AUTO 27014KT 230V300 9999 FEW031 06/01 Q1018 NOSIG
Amsterdam
Gewijzigd: 21-02-2020 01:25
Licht bewolkt  
Licht bewolkt  
   Wind: Westen 37 km/h
Wind: Westen 37 km/h
Temperatuur: 6°C
Voelt als: 1°C
Dauwpunt: 1°C
Vochtigheid: 71%
Barometer: 1017 hPa
Bewolking: Licht bewolkt
Zicht: meer dan 10 km
Bewolking: Licht bewolkt 853.4 m
EHAM 210025Z 27020KT 9999 FEW028 06/01 Q1017 NOSIG
Liège
Gewijzigd: 21-02-2020 01:20
Licht bewolkt  
Licht bewolkt  
   Wind: WZW 25.9 km/h
Wind: WZW 25.9 km/h
Temperatuur: 3°C
Voelt als: -2°C
Dauwpunt: 1°C
Vochtigheid: 87%
Barometer: 1021 hPa
Bewolking: Licht bewolkt
Zicht: meer dan 10 km
Bewolking: Licht bewolkt 670.6 m
EBLG 210020Z 25014KT 9999 FEW022 03/01 Q1021 NOSIG
Bruxelles
Gewijzigd: 21-02-2020 01:20
Helder  
Helder  
   Wind: WZW 20.4 km/h
Wind: WZW 20.4 km/h
Temperatuur: 4°C
Voelt als: 0°C
Dauwpunt: 1°C
Vochtigheid: 81%
Barometer: 1021 hPa
Zicht: meer dan 10 km
Bewolking: Helder
EBBR 210020Z 25011KT CAVOK 04/01 Q1021 NOSIG
Luxembourg
Gewijzigd: 21-02-2020 01:20
Grotendeels bewolkt  
Grotendeels bewolkt  
   Wind: WNW 24.1 km/h
Wind: WNW 24.1 km/h
Temperatuur: 3°C
Voelt als: -2°C
Dauwpunt: 0°C
Vochtigheid: 81%
Barometer: 1022 hPa
Bewolking: Grotendeels bewolkt
Zicht: meer dan 10 km
Bewolking: Licht bewolkt 548.6 m,
Grotendeels bewolkt 640.1 m,
Grotendeels bewolkt 762 m
ELLX 210020Z AUTO 29013KT 260V320 9999 FEW018/// BKN021/// BKN025/// 03/M00 Q1022 NOSIG
Düsseldorf
Gewijzigd: 21-02-2020 01:20
Licht bewolkt  
Licht bewolkt  
   Wind: Westen 25.9 km/h
Wind: Westen 25.9 km/h
Temperatuur: 5°C
Voelt als: 1°C
Dauwpunt: 1°C
Vochtigheid: 76%
Barometer: 1019 hPa
Bewolking: Licht bewolkt
Zicht: meer dan 10 km
Bewolking: Licht bewolkt 1280.2 m
EDDL 210020Z 26014KT 9999 FEW042 05/01 Q1019 NOSIG
Frankfurt am Main
Gewijzigd: 21-02-2020 01:20
Nabijgelegen buien, Gedeeltelijk bewolkt  
Nabijgelegen buien, Gedeeltelijk bewolkt  
   Wind: Westen 31.5 km/h
Wind: Westen 31.5 km/h
Temperatuur: 5°C
Voelt als: 0°C
Dauwpunt: 2°C
Vochtigheid: 81%
Barometer: 1019 hPa
Bewolking: Gedeeltelijk bewolkt
Zicht: meer dan 10 km
Bewolking: Licht bewolkt 335.3 m,
Gedeeltelijk bewolkt 609.6 m,
Gedeeltelijk bewolkt 1493.5 m
EDDF 210020Z 26017KT 9999 VCSH FEW011 SCT020CB SCT049 05/02 Q1019 RESHRA NOSIG

Originele script door Saratoga weather  Aangepast door weerstation Leuven 

U vindt ons ook hier:

Het Weer Aktueel

WeatherlinkIP

Weather Underground

KnmiWow

UK Metoffice

Apparatuur in gebruik:

Weerstation
Davis Vantage Pro 2

Datalogger
Davis Weatherlink

Weercomputer
Meteobridge Pro

Leverancier
Weerspecialist

Webleverancier
Robohost

Davis Vantage Pro 2

Davis Weatherlink

Meteobridge Pro

Weerspecialist

Robohost